CheckWX is a tool to help pilots better visualize weather data.  It is not intended as a substitute for an official pre-flight weather briefing.

11:21:01 UTC

KPVC METAR
Provincetown Municipal Airport
Provincetown, Massachusetts, USA
Current

18 mins ago

KPVC 281103Z AUTO 21010KT 3SM BR OVC003 16/16 A3024 RMK AO2
Observed
May-28 @ 11:03 UTC
Wind
  • 210° at 10 KTS
Visibility
Flight Rules
LIFR
Conditions
Mist
Cloud Levels
  • Overcast at 300' AGL
Temperature
16°C / 61°F
Dewpoint
16°C / 61°F
Humidity
100%
Altimeter
30.24" Hg
Pressure
1024.02 hPa
Previous

25 mins ago

KPVC 281056Z AUTO 21009KT 1 1/2SM BR OVC003 16/16 A3024 RMK AO2 SLP239 T01610161
Observed
May-28 @ 10:56 UTC
Wind
  • 210° at 9 KTS
Visibility
Flight Rules
LIFR
Conditions
Mist
Cloud Levels
  • Overcast at 300' AGL
Temperature
16°C / 61°F
Dewpoint
16°C / 61°F
Humidity
100%
Altimeter
30.24" Hg
Pressure
1024.02 hPa
Previous

1 hour ago

KPVC 280956Z AUTO 20010KT 1/2SM FG OVC003 16/16 A3024 RMK AO2 SLP238 T01610161
Observed
May-28 @ 09:56 UTC
Wind
  • 200° at 10 KTS
Visibility
Flight Rules
LIFR
Conditions
Fog
Cloud Levels
  • Overcast at 300' AGL
Temperature
16°C / 61°F
Dewpoint
16°C / 61°F
Humidity
100%
Altimeter
30.24" Hg
Pressure
1024.02 hPa